createdAt,value
2023-01-19T00:04:44.401Z,99.06
2023-01-19T00:09:47.599Z,98.90
2023-01-19T00:14:50.431Z,98.94
2023-01-19T00:19:53.234Z,99.18
2023-01-19T00:24:56.703Z,98.88
2023-01-19T00:29:59.547Z,99.07
2023-01-19T00:35:02.391Z,99.09
2023-01-19T00:40:07.188Z,99.17
2023-01-19T00:45:18.671Z,99.03
2023-01-19T00:50:21.543Z,98.94
2023-01-19T00:55:24.411Z,99.24
2023-01-19T01:00:27.785Z,98.84
2023-01-19T01:05:30.688Z,98.78
2023-01-19T01:10:33.675Z,98.18
2023-01-19T01:15:36.558Z,98.15
2023-01-19T01:20:39.453Z,98.28
2023-01-19T01:25:42.610Z,98.37
2023-01-19T01:30:45.425Z,98.47
2023-01-19T01:35:52.095Z,98.69
2023-01-19T01:40:54.891Z,98.75
2023-01-19T01:45:57.876Z,98.23
2023-01-19T01:51:22.853Z,97.88
2023-01-19T01:56:32.451Z,98.39
2023-01-19T02:01:55.086Z,98.75
2023-01-19T02:07:17.179Z,98.61
2023-01-19T02:12:38.889Z,98.58
2023-01-19T02:17:42.595Z,98.53
2023-01-19T02:22:50.150Z,98.24
2023-01-19T02:27:52.970Z,97.93
2023-01-19T02:32:55.762Z,97.64
2023-01-19T02:37:58.764Z,97.75
2023-01-19T02:43:02.053Z,97.58
2023-01-19T02:48:06.029Z,97.83
2023-01-19T02:53:25.438Z,98.11
2023-01-19T02:59:03.191Z,98.38
2023-01-19T03:04:37.816Z,98.54
2023-01-19T03:09:52.702Z,98.59
2023-01-19T03:14:59.896Z,98.65
2023-01-19T03:20:03.002Z,99.17
2023-01-19T03:25:07.063Z,98.92
2023-01-19T03:30:14.630Z,99.19
2023-01-19T03:35:18.382Z,99.22
2023-01-19T03:40:21.162Z,98.92
2023-01-19T03:45:24.013Z,99.07
2023-01-19T03:50:29.682Z,98.70
2023-01-19T03:55:33.263Z,98.56
2023-01-19T04:00:36.615Z,98.61
2023-01-19T04:05:39.716Z,98.59
2023-01-19T04:10:42.562Z,98.49
2023-01-19T04:15:45.374Z,98.44
2023-01-19T04:20:48.273Z,98.41
2023-01-19T04:25:51.058Z,98.26
2023-01-19T04:30:54.799Z,98.23
2023-01-19T04:35:57.699Z,98.27
2023-01-19T04:41:00.469Z,98.14
2023-01-19T04:46:03.386Z,98.27
2023-01-19T04:51:06.185Z,98.02
2023-01-19T04:56:09.150Z,98.08
2023-01-19T05:01:11.936Z,98.13
2023-01-19T05:06:14.784Z,97.81
2023-01-19T05:11:17.632Z,97.99
2023-01-19T05:16:20.497Z,97.97
2023-01-19T05:21:23.339Z,97.92
2023-01-19T05:26:26.189Z,97.86
2023-01-19T05:31:29.134Z,97.99
2023-01-19T05:36:32.679Z,97.73
2023-01-19T05:41:35.834Z,97.75
2023-01-19T05:46:39.865Z,97.96
2023-01-19T05:51:45.551Z,97.90
2023-01-19T05:56:48.315Z,98.02
2023-01-19T06:01:54.328Z,97.89
2023-01-19T06:06:57.135Z,98.03
2023-01-19T06:11:59.906Z,97.99
2023-01-19T06:17:02.764Z,98.04
2023-01-19T06:22:06.318Z,97.77
2023-01-19T06:27:09.354Z,97.50
2023-01-19T06:32:12.264Z,97.63
2023-01-19T06:37:16.770Z,97.54
2023-01-19T06:42:19.595Z,97.71
2023-01-19T06:47:23.365Z,97.53
2023-01-19T06:52:26.179Z,97.37
2023-01-19T06:57:28.961Z,97.68
2023-01-19T07:02:31.915Z,97.73
2023-01-19T07:07:36.676Z,97.63
2023-01-19T07:12:39.503Z,97.63
2023-01-19T07:17:43.722Z,97.65
2023-01-19T07:22:46.692Z,97.43
2023-01-19T07:27:49.528Z,97.16
2023-01-19T07:32:56.870Z,97.34
2023-01-19T07:37:59.774Z,97.34
2023-01-19T07:43:02.987Z,97.16
2023-01-19T07:48:06.686Z,96.97
2023-01-19T07:53:09.947Z,97.23
2023-01-19T07:58:12.716Z,97.27
2023-01-19T08:03:15.718Z,97.38
2023-01-19T08:08:19.343Z,97.49
2023-01-19T08:13:22.197Z,97.30
2023-01-19T08:18:25.007Z,97.16
2023-01-19T08:23:28.204Z,96.82
2023-01-19T08:28:31.580Z,96.76
2023-01-19T08:33:34.480Z,96.94
2023-01-19T08:38:39.811Z,97.05
2023-01-19T08:43:43.015Z,96.78
2023-01-19T08:48:45.863Z,96.66
2023-01-19T08:53:48.671Z,96.61
2023-01-19T08:59:07.651Z,96.56
2023-01-19T09:04:12.213Z,96.57
2023-01-19T09:09:15.153Z,96.33
2023-01-19T09:14:18.018Z,96.73
2023-01-19T09:19:21.304Z,96.48
2023-01-19T09:24:24.156Z,96.21
2023-01-19T09:29:27.349Z,95.78
2023-01-19T09:34:31.451Z,96.06
2023-01-19T09:39:34.281Z,96.16
2023-01-19T09:44:37.184Z,95.72
2023-01-19T09:49:44.039Z,95.79
2023-01-19T09:54:53.062Z,95.52
2023-01-19T09:59:59.815Z,95.20
2023-01-19T10:05:32.689Z,95.07
2023-01-19T10:10:37.524Z,94.66
2023-01-19T10:16:01.992Z,94.94
2023-01-19T10:21:33.657Z,95.12
2023-01-19T10:26:55.847Z,95.28
2023-01-19T10:32:34.136Z,95.43
2023-01-19T10:37:37.966Z,95.26
2023-01-19T10:42:42.029Z,95.06
2023-01-19T10:47:46.294Z,95.09
2023-01-19T10:52:51.691Z,94.94
2023-01-19T10:57:54.550Z,94.73
2023-01-19T11:02:57.443Z,94.68
2023-01-19T11:08:00.362Z,94.52
2023-01-19T11:13:12.758Z,94.69
2023-01-19T11:18:29.885Z,94.45
2023-01-19T11:23:43.119Z,93.89
2023-01-19T11:28:47.597Z,93.82
2023-01-19T11:33:52.334Z,93.80
2023-01-19T11:39:00.590Z,94.03
2023-01-19T11:44:26.842Z,93.72
2023-01-19T11:49:46.727Z,92.76
2023-01-19T11:54:56.551Z,93.25
2023-01-19T12:00:03.657Z,93.50
2023-01-19T12:05:06.941Z,93.55
2023-01-19T12:10:26.622Z,92.99
2023-01-19T12:15:42.989Z,93.34
2023-01-19T12:20:52.475Z,93.18
2023-01-19T12:26:27.909Z,93.20
2023-01-19T12:31:31.017Z,93.02
2023-01-19T12:36:36.664Z,92.89
2023-01-19T12:41:40.319Z,92.81
2023-01-19T12:47:08.223Z,92.51
2023-01-19T12:52:34.525Z,92.90
2023-01-19T12:57:58.263Z,93.25
2023-01-19T13:03:18.495Z,92.43
2023-01-19T13:08:31.203Z,92.27
2023-01-19T13:13:41.232Z,91.73
2023-01-19T13:18:58.546Z,92.25
2023-01-19T13:24:22.484Z,91.75
2023-01-19T13:29:36.162Z,91.18
2023-01-19T13:34:40.391Z,91.64
2023-01-19T13:39:49.169Z,92.35
2023-01-19T13:44:53.676Z,92.14
2023-01-19T13:49:57.732Z,92.09
2023-01-19T13:55:03.458Z,91.97
2023-01-19T14:00:11.919Z,92.27
2023-01-19T14:05:30.360Z,92.44
2023-01-19T14:10:34.991Z,92.67
2023-01-19T14:15:38.650Z,92.44
2023-01-19T14:20:42.335Z,92.42
2023-01-19T14:25:45.179Z,92.14
2023-01-19T14:30:59.507Z,92.31
2023-01-19T14:36:33.370Z,92.37
2023-01-19T14:41:40.793Z,92.38
2023-01-19T14:46:47.618Z,91.79
2023-01-19T14:51:50.463Z,91.27
2023-01-19T14:56:53.891Z,91.15
2023-01-19T15:01:56.826Z,91.01
2023-01-19T15:06:59.688Z,91.47
2023-01-19T15:12:02.454Z,91.23
2023-01-19T15:17:05.255Z,91.49
2023-01-19T15:22:13.039Z,91.52
2023-01-19T15:27:16.223Z,91.58
2023-01-19T15:32:19.006Z,91.39
2023-01-19T15:37:21.911Z,91.60
2023-01-19T15:42:24.779Z,91.73
2023-01-19T15:47:27.624Z,91.93
2023-01-19T15:52:30.394Z,91.88
2023-01-19T15:57:35.152Z,91.98
2023-01-19T16:02:38.042Z,92.19
2023-01-19T16:07:40.993Z,92.14
2023-01-19T16:12:45.217Z,92.18
2023-01-19T16:17:49.445Z,91.62
2023-01-19T16:22:52.886Z,91.38
2023-01-19T16:27:57.027Z,91.63
2023-01-19T16:32:59.940Z,91.77
2023-01-19T16:38:02.854Z,91.66
2023-01-19T16:43:06.064Z,91.78
2023-01-19T16:48:08.987Z,92.06
2023-01-19T16:53:11.811Z,92.28
2023-01-19T16:58:14.808Z,92.30
2023-01-19T17:03:20.902Z,92.62
2023-01-19T17:08:24.091Z,92.26
2023-01-19T17:13:27.285Z,91.88
2023-01-19T17:18:32.842Z,91.95
2023-01-19T17:23:37.473Z,91.91
2023-01-19T17:28:40.493Z,91.72
2023-01-19T17:33:45.100Z,91.95
2023-01-19T17:38:58.609Z,92.19
2023-01-19T17:44:02.500Z,91.92
2023-01-19T17:49:06.711Z,92.33
2023-01-19T17:54:11.028Z,92.37
2023-01-19T17:59:13.902Z,92.53
2023-01-19T18:04:16.706Z,92.90
2023-01-19T18:09:19.559Z,93.13
2023-01-19T18:14:22.397Z,93.16
2023-01-19T18:19:25.256Z,93.47
2023-01-19T18:25:03.548Z,93.37
2023-01-19T18:30:40.470Z,93.52
2023-01-19T18:35:51.755Z,93.76
2023-01-19T18:41:03.261Z,93.85
2023-01-19T18:55:59.799Z,94.11
2023-01-19T19:01:33.633Z,93.78
2023-01-19T19:06:37.057Z,93.97
2023-01-19T19:11:40.067Z,94.36
2023-01-19T19:16:48.001Z,94.70
2023-01-19T19:21:54.721Z,94.73
2023-01-19T19:26:59.343Z,94.98
2023-01-19T19:33:21.734Z,94.73
2023-01-19T19:38:29.547Z,94.84
2023-01-19T19:43:34.428Z,95.20
2023-01-19T19:48:39.427Z,95.49
2023-01-19T19:53:43.394Z,95.39
2023-01-19T20:14:20.746Z,96.15
2023-01-19T20:19:24.289Z,96.32
2023-01-19T20:24:27.430Z,96.24
2023-01-19T20:29:30.746Z,96.16
2023-01-19T20:40:51.719Z,96.43
2023-01-19T21:00:21.443Z,97.11
2023-01-19T21:06:27.957Z,97.32
2023-01-19T21:11:30.919Z,97.64
2023-01-19T21:16:34.290Z,97.66
2023-01-19T21:21:37.182Z,97.65
2023-01-19T21:26:41.828Z,97.75
2023-01-19T21:31:44.731Z,98.23
2023-01-19T21:36:47.615Z,97.94
2023-01-19T21:41:50.397Z,97.99
2023-01-19T21:46:54.713Z,97.95
2023-01-19T21:51:57.642Z,98.23
2023-01-19T21:57:02.661Z,97.93
2023-01-19T22:02:06.107Z,98.27
2023-01-19T22:07:09.035Z,98.50
2023-01-19T22:12:11.852Z,99.07
2023-01-19T22:17:14.631Z,99.11
2023-01-19T22:22:17.414Z,99.05
2023-01-19T22:27:20.231Z,99.03
2023-01-19T22:32:23.059Z,99.38
2023-01-19T22:37:25.877Z,99.22
2023-01-19T22:42:28.682Z,99.35
2023-01-19T22:47:31.575Z,99.55
2023-01-19T22:52:34.333Z,99.77
2023-01-19T22:57:37.432Z,99.34
2023-01-19T23:02:40.376Z,99.58
2023-01-19T23:07:43.223Z,99.77
2023-01-19T23:12:46.762Z,99.97
2023-01-19T23:17:52.959Z,99.93
2023-01-19T23:22:55.751Z,99.67
2023-01-19T23:27:58.541Z,99.62
2023-01-19T23:33:02.824Z,99.39
2023-01-19T23:38:05.875Z,99.26
2023-01-19T23:43:08.685Z,99.30
2023-01-19T23:48:11.508Z,99.18
2023-01-19T23:53:14.277Z,99.28
2023-01-19T23:58:17.138Z,98.97
